Time;durP1;ratioP1;P1;durP2;ratioP2;P2;SDS_P1;SDS_P2;PMS_P1;PMS_P2;Temp;Humidity;BMP_temperature;BMP_pressure;BME280_temperature;BME280_humidity;BME280_pressure;Samples;Min_cycle;Max_cycle;Signal;HPM_P1;HPM_P2
2022/10/28 00:01:18;;;;;;;11.33;4.50;;;18.00;99.90;;;;;;5115987;28;20206;-60
2022/10/28 00:03:49;;;;;;;9.03;4.23;;;18.00;99.90;;;;;;5116133;28;20545;-61
2022/10/28 00:06:20;;;;;;;11.57;4.10;;;18.00;99.90;;;;;;5116245;28;20649;-61
2022/10/28 00:08:48;;;;;;;16.17;4.53;;;18.00;99.90;;;;;;5115983;28;20221;-60
2022/10/28 00:11:18;;;;;;;8.20;4.20;;;18.00;99.90;;;;;;5104102;28;20235;-60
2022/10/28 00:13:48;;;;;;;9.90;4.77;;;17.90;99.90;;;;;;5088264;28;20188;-60
2022/10/28 00:16:20;;;;;;;10.47;4.30;;;17.90;99.90;;;;;;5072369;28;20203;-61
2022/10/28 00:18:51;;;;;;;13.50;4.53;;;17.90;99.90;;;;;;5075259;28;20710;-60
2022/10/28 00:21:21;;;;;;;11.63;4.50;;;17.80;99.90;;;;;;5082394;28;20207;-61
2022/10/28 00:23:49;;;;;;;10.83;4.70;;;17.80;99.90;;;;;;5095564;28;20210;-61
2022/10/28 00:26:21;;;;;;;8.27;4.10;;;17.70;99.90;;;;;;5095797;28;20195;-60
2022/10/28 00:28:52;;;;;;;13.63;4.40;;;17.70;99.90;;;;;;5095811;28;20215;-61
2022/10/28 00:31:24;;;;;;;8.87;4.50;;;17.70;99.90;;;;;;5095584;28;20183;-61
2022/10/28 00:33:53;;;;;;;11.30;4.20;;;17.70;99.90;;;;;;5077556;28;20183;-60
2022/10/28 00:36:23;;;;;;;10.50;4.43;;;17.60;99.90;;;;;;5095966;28;20191;-61
2022/10/28 00:38:52;;;;;;;14.97;4.40;;;17.70;99.90;;;;;;5077487;28;20566;-60
2022/10/28 00:41:23;;;;;;;10.97;4.70;;;17.70;99.90;;;;;;5095327;28;20207;-60
2022/10/28 00:43:53;;;;;;;15.30;4.53;;;17.80;99.90;;;;;;5095618;28;20191;-60
2022/10/28 00:46:29;;;;;;;13.97;4.80;;;17.80;99.90;;;;;;5095523;28;20195;-61
2022/10/28 00:49:03;;;;;;;9.63;3.87;;;17.80;99.90;;;;;;5082414;28;20222;-60
2022/10/28 00:51:33;;;;;;;15.70;4.87;;;17.80;99.90;;;;;;5095365;28;20210;-61
2022/10/28 00:54:04;;;;;;;12.00;4.20;;;17.70;99.90;;;;;;5095791;28;20195;-60
2022/10/28 00:56:37;;;;;;;9.10;4.30;;;17.70;99.90;;;;;;5095462;28;20193;-60
2022/10/28 00:59:10;;;;;;;16.30;4.10;;;17.70;99.90;;;;;;5095437;28;20179;-60
2022/10/28 01:01:45;;;;;;;9.07;4.63;;;17.70;99.90;;;;;;5085512;28;20626;-60
2022/10/28 01:04:14;;;;;;;9.03;4.10;;;17.70;99.90;;;;;;5075167;28;20284;-61
2022/10/28 01:07:13;;;;;;;9.07;4.57;;;17.70;99.90;;;;;;5074668;28;20195;-61
2022/10/28 01:09:42;;;;;;;9.63;3.67;;;17.70;99.90;;;;;;5088567;28;20207;-60
2022/10/28 01:12:17;;;;;;;10.60;4.40;;;17.70;99.90;;;;;;5111084;28;20231;-59
2022/10/28 01:14:59;;;;;;;11.37;4.90;;;17.60;99.90;;;;;;5107425;28;20198;-60
2022/10/28 01:17:49;;;;;;;10.07;3.90;;;17.60;99.90;;;;;;5115334;28;20205;-60
2022/10/28 01:21:02;;;;;;;15.30;4.47;;;17.60;99.90;;;;;;5115360;28;20255;-60
2022/10/28 01:23:36;;;;;;;10.97;4.60;;;17.70;99.90;;;;;;5073323;28;20206;-60
2022/10/28 01:26:42;;;;;;;9.57;4.10;;;17.70;99.90;;;;;;5114893;28;20199;-60
2022/10/28 01:29:49;;;;;;;11.37;5.00;;;17.70;99.90;;;;;;5061322;28;20218;-60
2022/10/28 01:32:30;;;;;;;7.07;3.90;;;17.70;99.90;;;;;;5084052;28;20274;-60
2022/10/28 01:35:08;;;;;;;15.77;4.60;;;17.60;99.90;;;;;;5094397;28;20245;-59
2022/10/28 01:37:43;;;;;;;14.53;4.57;;;17.60;99.90;;;;;;5080123;28;20186;-60
2022/10/28 01:40:20;;;;;;;12.83;4.63;;;17.60;99.90;;;;;;5096642;28;20188;-60
2022/10/28 01:42:55;;;;;;;13.63;4.40;;;17.50;99.90;;;;;;5113065;28;20315;-60
2022/10/28 01:45:28;;;;;;;12.20;4.50;;;17.50;99.90;;;;;;5094237;28;20179;-61
2022/10/28 01:48:01;;;;;;;9.07;3.90;;;17.50;99.90;;;;;;5112681;28;20194;-60
2022/10/28 01:50:37;;;;;;;11.67;4.10;;;17.50;99.90;;;;;;5093983;28;20678;-60
2022/10/28 01:53:11;;;;;;;15.30;4.57;;;17.40;99.90;;;;;;5109139;27;20655;-60
2022/10/28 01:55:43;;;;;;;14.23;3.93;;;17.40;99.90;;;;;;5134924;27;20181;-60
2022/10/28 01:58:15;;;;;;;8.30;3.83;;;17.40;99.90;;;;;;5116501;27;20190;-60
2022/10/28 02:00:45;;;;;;;10.50;4.30;;;17.40;99.90;;;;;;5116578;27;20189;-60
2022/10/28 02:03:16;;;;;;;11.30;4.07;;;17.40;99.90;;;;;;5098225;28;20539;-60
2022/10/28 02:05:47;;;;;;;13.53;4.10;;;17.40;99.90;;;;;;5114245;28;20198;-61
2022/10/28 02:08:30;;;;;;;12.33;3.97;;;17.30;99.90;;;;;;5114459;28;20620;-60
2022/10/28 02:11:11;;;;;;;9.70;4.40;;;17.40;99.90;;;;;;5114267;28;20219;-60
2022/10/28 02:13:46;;;;;;;8.47;3.87;;;17.30;99.90;;;;;;5114086;28;20580;-60
2022/10/28 02:16:23;;;;;;;11.37;4.50;;;17.30;99.90;;;;;;5080851;28;20202;-60
2022/10/28 02:19:02;;;;;;;18.07;3.90;;;17.40;99.90;;;;;;5084667;28;20663;-60
2022/10/28 02:21:42;;;;;;;7.00;4.40;;;17.30;99.90;;;;;;5080108;28;20199;-60
2022/10/28 02:24:18;;;;;;;8.40;4.10;;;17.40;99.90;;;;;;5093647;28;20199;-60
2022/10/28 02:26:52;;;;;;;12.70;4.90;;;17.50;99.90;;;;;;5094047;28;20633;-59
2022/10/28 02:29:28;;;;;;;14.73;4.30;;;17.50;99.90;;;;;;5093647;28;20200;-60
2022/10/28 02:31:59;;;;;;;8.93;4.07;;;17.40;99.90;;;;;;5100183;28;20187;-60
2022/10/28 02:43:50;;;;;;;13.00;4.50;;;17.30;99.90;;;;;;5093646;28;20165;-59
2022/10/28 02:46:20;;;;;;;8.83;4.07;;;17.20;99.90;;;;;;5094173;28;20553;-60
2022/10/28 02:48:52;;;;;;;11.57;4.50;;;17.20;99.90;;;;;;5114085;28;20200;-60
2022/10/28 02:51:27;;;;;;;12.53;4.33;;;17.10;99.90;;;;;;5113767;28;20216;-60
2022/10/28 02:54:01;;;;;;;8.67;3.80;;;17.20;99.90;;;;;;5130408;28;20192;-60
2022/10/28 02:56:35;;;;;;;17.10;4.23;;;17.10;99.90;;;;;;5134382;28;20234;-60
2022/10/28 02:59:09;;;;;;;11.50;4.37;;;17.10;99.90;;;;;;5136660;27;20215;-60
2022/10/28 03:01:38;;;;;;;11.47;4.13;;;17.00;99.90;;;;;;5138515;27;20192;-60
2022/10/28 03:04:07;;;;;;;12.33;4.23;;;17.00;99.90;;;;;;5119932;27;20208;-60
2022/10/28 03:06:35;;;;;;;9.27;4.53;;;16.80;99.90;;;;;;5119909;27;20192;-60
2022/10/28 03:09:03;;;;;;;13.73;4.13;;;16.70;99.90;;;;;;5122506;27;20207;-61
2022/10/28 03:11:32;;;;;;;9.20;4.17;;;16.70;99.90;;;;;;5117417;28;20222;-60
2022/10/28 03:14:00;;;;;;;10.70;4.27;;;16.60;99.90;;;;;;5111401;28;20193;-60
2022/10/28 03:16:30;;;;;;;12.73;4.40;;;16.60;99.90;;;;;;5117544;28;20181;-61
2022/10/28 03:18:58;;;;;;;14.50;4.93;;;16.60;99.90;;;;;;5117420;28;20191;-61
2022/10/28 03:21:26;;;;;;;13.50;5.10;;;16.60;99.90;;;;;;5117951;28;20193;-60
2022/10/28 03:23:55;;;;;;;12.30;4.30;;;16.60;99.90;;;;;;5117413;28;20548;-60
2022/10/28 03:26:23;;;;;;;10.30;4.40;;;16.60;99.90;;;;;;5116980;28;20196;-59
2022/10/28 03:28:51;;;;;;;10.70;4.70;;;16.60;99.90;;;;;;5117404;28;20186;-60
2022/10/28 03:31:20;;;;;;;10.30;4.43;;;16.60;99.90;;;;;;5117237;28;20199;-60
2022/10/28 03:33:50;;;;;;;12.63;4.30;;;16.60;99.90;;;;;;5098742;28;20204;-61
2022/10/28 03:36:18;;;;;;;14.33;4.60;;;16.60;99.90;;;;;;5100512;28;20201;-60
2022/10/28 03:38:46;;;;;;;10.20;4.43;;;16.60;99.90;;;;;;5108294;28;20645;-59
2022/10/28 03:41:15;;;;;;;9.30;4.40;;;16.50;99.90;;;;;;5117223;28;20194;-60
2022/10/28 03:43:43;;;;;;;10.40;4.47;;;16.50;99.90;;;;;;5099128;28;20197;-61
2022/10/28 03:46:12;;;;;;;7.43;4.57;;;16.50;99.90;;;;;;5113349;28;20194;-61
2022/10/28 03:48:40;;;;;;;16.17;4.80;;;16.60;99.90;;;;;;5106967;28;20201;-60
2022/10/28 03:51:09;;;;;;;13.53;4.47;;;16.60;99.90;;;;;;5117160;28;20670;-60
2022/10/28 03:53:38;;;;;;;13.37;4.27;;;16.60;99.90;;;;;;5098656;28;20200;-60
2022/10/28 03:56:08;;;;;;;9.53;4.87;;;16.60;99.90;;;;;;5116860;28;20198;-60
2022/10/28 03:58:36;;;;;;;13.70;4.70;;;16.50;99.90;;;;;;5098996;28;20215;-60
2022/10/28 04:01:08;;;;;;;15.10;4.93;;;16.50;99.90;;;;;;5098301;28;20627;-59
2022/10/28 04:03:44;;;;;;;15.60;4.60;;;16.50;99.90;;;;;;5100506;28;20581;-60
2022/10/28 04:06:15;;;;;;;10.20;4.53;;;16.50;99.90;;;;;;5077787;28;20186;-61
2022/10/28 04:08:43;;;;;;;10.13;4.97;;;16.50;99.90;;;;;;5097398;28;20657;-59
2022/10/28 04:11:11;;;;;;;15.10;4.97;;;16.40;99.90;;;;;;5116022;28;20237;-59
2022/10/28 04:13:40;;;;;;;14.47;4.57;;;16.30;99.90;;;;;;5115119;28;20228;-60
2022/10/28 04:16:08;;;;;;;8.93;4.73;;;16.20;99.90;;;;;;5115523;28;20665;-60
2022/10/28 04:18:36;;;;;;;14.77;4.60;;;16.10;99.90;;;;;;5097165;28;20191;-60
2022/10/28 04:21:06;;;;;;;10.07;4.20;;;16.00;99.90;;;;;;5115424;28;20192;-60
2022/10/28 04:23:35;;;;;;;11.90;4.83;;;16.00;99.90;;;;;;5115126;28;20191;-60
2022/10/28 04:26:03;;;;;;;10.27;4.60;;;15.90;99.90;;;;;;5115342;28;20282;-60
2022/10/28 04:28:32;;;;;;;12.37;4.60;;;15.80;99.90;;;;;;5097284;28;20192;-60
2022/10/28 04:31:01;;;;;;;12.40;5.17;;;15.80;99.90;;;;;;5114705;28;20220;-60
2022/10/28 04:33:29;;;;;;;15.90;5.40;;;15.80;99.90;;;;;;5115136;28;20651;-60
2022/10/28 04:35:58;;;;;;;11.10;4.43;;;15.70;99.90;;;;;;5114904;28;20207;-60
2022/10/28 04:38:26;;;;;;;15.27;4.80;;;15.60;99.90;;;;;;5114949;28;20373;-60
2022/10/28 04:40:56;;;;;;;11.73;5.00;;;15.60;99.90;;;;;;5106556;28;20617;-60
2022/10/28 04:43:24;;;;;;;7.63;4.43;;;15.50;99.90;;;;;;5094768;28;20531;-60
2022/10/28 04:45:53;;;;;;;12.13;5.00;;;15.50;99.90;;;;;;5094564;28;20591;-60
2022/10/28 04:48:21;;;;;;;9.33;4.33;;;15.40;99.90;;;;;;5091531;28;20205;-60
2022/10/28 04:50:50;;;;;;;10.00;4.87;;;15.30;99.90;;;;;;5114429;28;20202;-60
2022/10/28 04:53:18;;;;;;;18.37;5.00;;;15.20;99.90;;;;;;5114812;28;20531;-60
2022/10/28 04:55:46;;;;;;;13.20;5.07;;;15.20;99.90;;;;;;5114568;28;20198;-60
2022/10/28 04:58:16;;;;;;;13.90;5.17;;;15.10;99.90;;;;;;5114734;28;20265;-59
2022/10/28 05:00:44;;;;;;;17.47;5.00;;;15.00;99.90;;;;;;5096444;28;20203;-59
2022/10/28 05:03:12;;;;;;;14.60;5.13;;;14.90;99.90;;;;;;5096072;28;20210;-60
2022/10/28 05:05:40;;;;;;;12.10;5.10;;;14.90;99.90;;;;;;5090607;28;20196;-61
2022/10/28 05:08:09;;;;;;;12.93;5.10;;;14.90;99.90;;;;;;5093842;28;20195;-60
2022/10/28 05:10:37;;;;;;;10.80;4.90;;;14.90;99.90;;;;;;5049439;28;1200061;-60
2022/10/28 05:13:06;;;;;;;14.33;5.07;;;14.90;99.90;;;;;;5114470;28;20214;-60
2022/10/28 05:15:35;;;;;;;10.83;5.03;;;14.90;99.90;;;;;;5113749;28;20197;-60
2022/10/28 05:18:03;;;;;;;7.93;4.90;;;14.80;99.90;;;;;;5108573;28;20271;-60
2022/10/28 05:20:32;;;;;;;7.90;4.87;;;14.80;99.90;;;;;;5076264;28;20199;-60
2022/10/28 05:23:00;;;;;;;18.17;5.63;;;14.70;99.90;;;;;;5094410;28;20189;-59
2022/10/28 05:25:28;;;;;;;12.10;5.23;;;14.70;99.90;;;;;;5095892;28;20654;-60
2022/10/28 05:27:59;;;;;;;17.33;5.43;;;14.60;99.90;;;;;;5114862;28;20660;-60
2022/10/28 05:30:27;;;;;;;12.13;5.03;;;14.50;99.90;;;;;;5096598;28;20196;-60
2022/10/28 05:33:01;;;;;;;14.63;5.67;;;14.50;99.90;;;;;;5114483;28;20214;-60
2022/10/28 05:35:30;;;;;;;11.97;4.97;;;14.40;99.90;;;;;;5114451;28;20195;-60
2022/10/28 05:37:58;;;;;;;12.23;5.03;;;14.30;99.90;;;;;;5114962;28;20198;-60
2022/10/28 05:40:26;;;;;;;16.70;5.93;;;14.30;99.90;;;;;;5114801;28;20187;-60
2022/10/28 05:42:55;;;;;;;16.00;5.70;;;14.20;99.90;;;;;;5114643;28;20187;-60
2022/10/28 05:45:24;;;;;;;10.37;5.50;;;14.20;99.90;;;;;;5096591;28;20491;-60
2022/10/28 05:47:52;;;;;;;10.00;5.30;;;14.20;99.90;;;;;;5097610;28;20198;-60
2022/10/28 05:50:22;;;;;;;13.17;5.53;;;14.20;99.90;;;;;;5104611;28;20203;-60
2022/10/28 05:52:52;;;;;;;16.53;6.10;;;14.30;99.90;;;;;;5094523;28;20204;-60
2022/10/28 05:55:22;;;;;;;11.17;6.20;;;14.30;99.90;;;;;;5113641;28;20194;-60
2022/10/28 05:57:52;;;;;;;14.63;5.63;;;14.30;99.90;;;;;;5106826;28;20196;-60
2022/10/28 06:00:22;;;;;;;9.57;5.67;;;14.30;99.90;;;;;;5075626;28;20199;-59
2022/10/28 06:02:51;;;;;;;18.43;5.87;;;14.30;99.90;;;;;;5101593;28;20183;-60
2022/10/28 06:05:20;;;;;;;11.13;5.70;;;14.30;99.90;;;;;;5114330;28;20210;-59
2022/10/28 06:07:49;;;;;;;18.70;5.70;;;14.40;99.90;;;;;;5093276;28;20186;-59
2022/10/28 06:10:18;;;;;;;17.13;5.90;;;14.50;99.90;;;;;;5093643;28;20192;-60
2022/10/28 06:12:46;;;;;;;14.80;5.80;;;14.60;99.90;;;;;;5083040;28;20207;-60
2022/10/28 06:15:14;;;;;;;14.60;5.43;;;14.70;99.90;;;;;;5114105;28;20194;-59
2022/10/28 06:17:43;;;;;;;17.27;5.83;;;14.80;99.90;;;;;;5079083;28;20214;-59
2022/10/28 06:20:11;;;;;;;17.87;5.73;;;14.90;99.90;;;;;;5105195;28;20225;-60
2022/10/28 06:22:49;;;;;;;12.53;5.17;;;15.00;99.90;;;;;;5113685;28;20196;-60
2022/10/28 06:25:18;;;;;;;17.37;5.37;;;15.10;99.90;;;;;;5114064;28;20221;-59
2022/10/28 06:27:52;;;;;;;12.97;5.70;;;15.20;99.90;;;;;;5113567;28;20196;-59
2022/10/28 06:30:20;;;;;;;19.83;5.50;;;15.30;99.90;;;;;;5113281;28;20208;-59
2022/10/28 06:32:49;;;;;;;12.20;5.83;;;15.40;99.90;;;;;;5095322;28;20208;-59
2022/10/28 06:35:17;;;;;;;16.57;6.13;;;15.60;99.90;;;;;;5095893;28;20197;-59
2022/10/28 06:37:46;;;;;;;12.93;5.20;;;15.70;99.90;;;;;;5079681;28;20666;-60
2022/10/28 06:40:15;;;;;;;18.40;5.27;;;15.70;99.90;;;;;;5093210;28;20654;-59
2022/10/28 06:42:44;;;;;;;13.67;4.97;;;15.90;99.90;;;;;;5093506;28;20184;-59
2022/10/28 06:45:12;;;;;;;13.77;4.70;;;15.90;99.90;;;;;;5102821;28;20191;-59
2022/10/28 06:47:40;;;;;;;15.03;5.33;;;15.90;99.90;;;;;;5113589;28;20192;-59
2022/10/28 06:50:09;;;;;;;13.77;5.70;;;16.00;99.90;;;;;;5113384;28;20191;-60
2022/10/28 06:52:38;;;;;;;17.27;5.37;;;16.10;99.90;;;;;;5096854;28;20218;-59
2022/10/28 06:55:06;;;;;;;15.47;4.80;;;16.20;99.90;;;;;;5093311;28;20189;-60
2022/10/28 06:57:36;;;;;;;17.47;5.43;;;16.20;99.90;;;;;;5093533;28;20251;-60
2022/10/28 07:00:05;;;;;;;12.60;4.97;;;16.20;99.90;;;;;;5113150;28;20198;-60
2022/10/28 07:02:33;;;;;;;16.77;5.10;;;16.30;99.90;;;;;;5113441;28;20205;-60
2022/10/28 07:05:02;;;;;;;12.70;5.00;;;16.30;99.90;;;;;;5108498;28;20575;-60
2022/10/28 07:07:30;;;;;;;20.73;5.20;;;16.30;99.90;;;;;;5093148;28;20664;-60
2022/10/28 07:09:58;;;;;;;11.00;5.00;;;16.40;99.90;;;;;;5093034;28;20292;-60
2022/10/28 07:12:27;;;;;;;16.00;4.73;;;16.40;99.90;;;;;;5093436;28;20319;-60
2022/10/28 07:14:57;;;;;;;12.20;4.70;;;16.40;99.90;;;;;;5099898;28;20197;-60
2022/10/28 07:17:25;;;;;;;15.70;5.10;;;16.40;99.90;;;;;;5094794;28;20190;-60
2022/10/28 07:19:53;;;;;;;13.10;5.13;;;16.50;99.90;;;;;;5113494;28;20280;-60
2022/10/28 07:22:21;;;;;;;17.70;5.03;;;16.60;99.90;;;;;;5113466;28;20191;-60
2022/10/28 07:24:52;;;;;;;11.63;5.40;;;16.60;99.90;;;;;;5095309;28;20205;-60
2022/10/28 07:27:20;;;;;;;17.90;4.77;;;16.70;99.90;;;;;;5113333;28;20238;-60
2022/10/28 07:29:49;;;;;;;13.37;5.03;;;16.80;99.90;;;;;;5095289;28;20203;-60
2022/10/28 07:32:18;;;;;;;12.73;5.07;;;16.90;99.90;;;;;;5096106;28;20203;-60
2022/10/28 07:34:46;;;;;;;10.27;4.30;;;17.00;99.90;;;;;;5092410;28;20201;-60
2022/10/28 07:37:15;;;;;;;13.93;4.80;;;17.10;99.90;;;;;;5106939;28;20201;-60
2022/10/28 07:39:43;;;;;;;11.13;4.67;;;17.30;99.90;;;;;;5104999;28;20193;-60
2022/10/28 07:42:11;;;;;;;15.43;5.20;;;17.30;99.90;;;;;;5092466;28;20278;-60
2022/10/28 07:44:39;;;;;;;17.40;5.30;;;17.40;99.90;;;;;;5094140;28;20193;-60
2022/10/28 07:47:08;;;;;;;12.10;5.00;;;17.50;99.90;;;;;;5096430;28;20188;-61
2022/10/28 07:49:37;;;;;;;15.53;4.90;;;17.50;99.90;;;;;;5116176;28;20209;-60
2022/10/28 07:52:06;;;;;;;15.30;4.93;;;17.60;99.90;;;;;;5098351;28;20652;-60
2022/10/28 07:54:34;;;;;;;11.03;4.60;;;17.70;99.90;;;;;;5117013;28;20231;-60
2022/10/28 07:57:02;;;;;;;14.83;4.97;;;17.70;99.90;;;;;;5098392;28;20195;-61
2022/10/28 07:59:31;;;;;;;15.20;4.53;;;17.80;99.90;;;;;;5109161;28;20198;-61
2022/10/28 08:01:59;;;;;;;13.37;4.57;;;17.80;99.90;;;;;;5116618;28;20650;-61
2022/10/28 08:04:29;;;;;;;15.10;5.30;;;17.80;99.90;;;;;;5116381;28;20268;-61
2022/10/28 08:07:01;;;;;;;14.90;4.63;;;17.80;99.90;;;;;;5090617;28;20553;-61
2022/10/28 08:09:29;;;;;;;14.97;5.07;;;17.80;99.90;;;;;;5116830;28;20199;-61
2022/10/28 08:11:59;;;;;;;16.97;4.80;;;17.80;99.90;;;;;;5116095;28;20227;-60
2022/10/28 08:14:27;;;;;;;11.33;4.40;;;17.90;99.90;;;;;;5116676;28;20548;-60
2022/10/28 08:16:56;;;;;;;12.17;5.10;;;17.90;99.90;;;;;;5116321;28;20205;-60
2022/10/28 08:19:24;;;;;;;11.50;4.50;;;17.90;99.90;;;;;;5116112;28;20247;-60
2022/10/28 08:21:52;;;;;;;16.57;4.60;;;17.90;99.90;;;;;;5116155;28;20201;-60
2022/10/28 08:24:22;;;;;;;14.20;4.67;;;18.00;99.90;;;;;;5114059;28;20199;-60
2022/10/28 08:26:50;;;;;;;13.07;4.77;;;18.10;99.90;;;;;;5116158;28;20187;-61
2022/10/28 08:29:19;;;;;;;16.57;5.63;;;18.10;99.90;;;;;;5112304;28;20522;-60
2022/10/28 08:31:47;;;;;;;18.30;4.97;;;18.10;99.90;;;;;;5095864;28;20580;-61
2022/10/28 08:34:15;;;;;;;15.30;5.20;;;18.10;99.90;;;;;;5105885;28;20214;-60
2022/10/28 08:36:44;;;;;;;10.90;4.47;;;18.00;99.90;;;;;;5097402;28;20187;-61
2022/10/28 08:39:12;;;;;;;13.10;5.30;;;18.00;99.90;;;;;;5115497;28;20645;-60
2022/10/28 08:41:47;;;;;;;17.27;5.00;;;18.10;99.90;;;;;;5113117;28;20198;-61
2022/10/28 08:44:54;;;;;;;16.97;5.10;;;18.20;99.90;;;;;;5113987;28;20186;-60
2022/10/28 08:47:32;;;;;;;16.73;4.50;;;18.40;99.90;;;;;;5077759;28;20206;-60
2022/10/28 08:50:05;;;;;;;14.40;5.03;;;18.50;99.90;;;;;;5118120;27;20195;-61
2022/10/28 08:52:39;;;;;;;13.93;5.60;;;18.70;99.90;;;;;;5136366;27;20277;-60
2022/10/28 08:55:14;;;;;;;15.73;5.00;;;18.90;99.90;;;;;;5136212;27;20221;-60
2022/10/28 08:57:49;;;;;;;21.60;5.20;;;19.10;99.90;;;;;;5135735;27;20209;-60
2022/10/28 09:00:21;;;;;;;14.70;4.73;;;19.20;99.90;;;;;;5136042;27;20185;-61
2022/10/28 09:02:59;;;;;;;14.47;4.63;;;19.30;99.90;;;;;;5111965;28;20195;-60
2022/10/28 09:05:29;;;;;;;14.10;5.07;;;19.40;99.90;;;;;;5105967;28;20641;-60
2022/10/28 09:07:58;;;;;;;16.80;5.13;;;19.50;99.90;;;;;;5095087;28;20184;-60
2022/10/28 09:10:43;;;;;;;18.07;4.70;;;19.60;99.90;;;;;;5106622;28;20187;-61
2022/10/28 09:13:22;;;;;;;10.63;4.90;;;19.70;99.90;;;;;;5102061;28;20190;-61
2022/10/28 09:16:00;;;;;;;12.87;5.17;;;19.90;99.90;;;;;;5115370;28;20222;-60
2022/10/28 09:18:45;;;;;;;22.23;5.63;;;20.00;99.90;;;;;;5109853;28;20201;-61
2022/10/28 09:21:21;;;;;;;10.33;4.57;;;20.10;99.90;;;;;;5076544;28;20226;-60
2022/10/28 09:23:55;;;;;;;17.80;4.70;;;20.10;99.90;;;;;;5095581;28;20191;-61
2022/10/28 09:26:36;;;;;;;11.53;4.50;;;20.20;99.90;;;;;;5094672;28;20280;-61
2022/10/28 09:29:25;;;;;;;8.93;4.50;;;20.30;99.90;;;;;;5114800;28;20586;-60
2022/10/28 09:31:57;;;;;;;22.67;4.53;;;20.40;99.90;;;;;;5116954;27;20195;-60
2022/10/28 09:34:34;;;;;;;14.17;4.80;;;20.50;99.90;;;;;;5096576;28;20241;-60
2022/10/28 09:37:08;;;;;;;17.43;4.70;;;20.50;99.90;;;;;;5115038;28;20194;-61
2022/10/28 09:39:42;;;;;;;10.80;4.60;;;20.60;99.90;;;;;;5114684;28;20182;-60
2022/10/28 09:42:16;;;;;;;11.27;4.27;;;20.80;99.90;;;;;;5111943;28;20198;-60
2022/10/28 09:44:51;;;;;;;16.07;4.77;;;20.80;99.90;;;;;;5103739;28;20321;-61
2022/10/28 09:47:23;;;;;;;12.87;3.90;;;20.90;99.90;;;;;;5114504;28;20205;-60
2022/10/28 09:49:55;;;;;;;14.67;4.63;;;21.00;99.90;;;;;;5102348;28;20207;-60
2022/10/28 09:52:27;;;;;;;10.27;4.20;;;21.00;99.90;;;;;;5085786;28;20191;-61
2022/10/28 09:54:57;;;;;;;17.63;4.80;;;21.20;99.90;;;;;;5111274;28;20207;-61
2022/10/28 09:57:30;;;;;;;12.30;4.10;;;21.30;99.90;;;;;;5110332;28;20622;-62
2022/10/28 10:00:00;;;;;;;14.57;4.33;;;21.30;99.90;;;;;;5108416;28;20584;-61
2022/10/28 10:02:32;;;;;;;17.20;4.70;;;21.20;99.90;;;;;;5114138;28;20194;-61
2022/10/28 10:05:03;;;;;;;12.20;4.60;;;21.20;99.90;;;;;;5096207;28;20822;-60
2022/10/28 10:07:35;;;;;;;10.27;4.20;;;21.20;99.90;;;;;;5113887;28;20537;-61
2022/10/28 10:10:11;;;;;;;12.27;4.43;;;21.20;99.90;;;;;;5108204;28;20206;-61
2022/10/28 10:12:40;;;;;;;13.23;4.37;;;21.20;99.90;;;;;;5093762;28;20514;-61
2022/10/28 10:15:19;;;;;;;14.27;4.27;;;21.10;99.90;;;;;;5090752;28;20364;-61
2022/10/28 10:17:49;;;;;;;13.17;4.40;;;21.10;99.90;;;;;;5113697;28;20205;-61
2022/10/28 10:20:21;;;;;;;12.87;5.10;;;21.20;99.90;;;;;;5109314;28;20665;-61
2022/10/28 10:22:50;;;;;;;18.60;4.83;;;21.30;99.90;;;;;;5103657;28;20312;-61
2022/10/28 10:25:32;;;;;;;23.00;4.43;;;21.40;99.90;;;;;;5112375;28;20312;-61
2022/10/28 10:28:02;;;;;;;17.97;3.90;;;21.40;99.90;;;;;;5093301;28;20217;-60
2022/10/28 10:30:39;;;;;;;12.80;4.50;;;21.40;99.90;;;;;;5093844;28;20195;-61
2022/10/28 10:33:20;;;;;;;15.63;4.57;;;21.60;99.90;;;;;;5093615;28;20202;-61
2022/10/28 10:35:55;;;;;;;18.83;5.23;;;21.80;99.90;;;;;;5095054;28;20204;-60
2022/10/28 10:38:30;;;;;;;19.63;4.53;;;22.00;99.90;;;;;;5100215;28;20286;-61
2022/10/28 10:40:58;;;;;;;20.17;4.03;;;22.30;99.90;;;;;;5113790;28;20198;-60
2022/10/28 10:43:32;;;;;;;13.47;4.37;;;22.50;99.90;;;;;;5113994;28;20187;-61
2022/10/28 10:46:03;;;;;;;14.47;4.27;;;22.50;99.90;;;;;;5113630;28;20332;-60
2022/10/28 10:48:35;;;;;;;14.80;4.50;;;22.40;99.90;;;;;;5113168;28;20286;-60
2022/10/28 10:51:09;;;;;;;11.43;3.97;;;22.30;99.90;;;;;;5113125;28;20230;-61
2022/10/28 10:53:39;;;;;;;13.57;4.40;;;22.20;99.90;;;;;;5113609;28;20665;-61
2022/10/28 10:56:11;;;;;;;9.50;4.30;;;22.10;99.90;;;;;;5077427;28;20215;-61
2022/10/28 10:58:50;;;;;;;13.30;4.70;;;22.10;99.90;;;;;;5075278;28;20234;-60
2022/10/28 11:01:22;;;;;;;14.77;4.23;;;22.30;99.90;;;;;;5112127;28;20195;-61
2022/10/28 11:03:54;;;;;;;12.83;3.80;;;22.20;99.90;;;;;;5103600;28;20531;-61
2022/10/28 11:06:26;;;;;;;15.67;4.40;;;22.20;99.90;;;;;;5113857;28;20561;-60
2022/10/28 11:08:57;;;;;;;14.60;4.23;;;22.30;99.90;;;;;;5095286;28;20653;-60
2022/10/28 11:11:34;;;;;;;16.93;3.93;;;22.30;99.90;;;;;;5101260;28;20573;-60
2022/10/28 11:14:05;;;;;;;13.93;3.50;;;22.40;99.90;;;;;;5085389;28;20194;-60
2022/10/28 11:16:47;;;;;;;14.10;3.87;;;22.50;99.90;;;;;;5088884;28;20702;-60
2022/10/28 11:19:20;;;;;;;14.03;3.97;;;22.50;99.90;;;;;;5092193;28;20207;-60
2022/10/28 11:22:08;;;;;;;18.33;4.60;;;22.60;99.90;;;;;;5087048;28;20193;-61
2022/10/28 11:25:00;;;;;;;14.90;4.00;;;22.60;99.90;;;;;;5091415;28;20185;-61
2022/10/28 11:27:40;;;;;;;15.07;4.47;;;22.60;99.90;;;;;;5061961;28;20192;-60
2022/10/28 11:30:13;;;;;;;9.93;3.90;;;22.70;99.90;;;;;;5088406;28;20193;-61
2022/10/28 11:32:58;;;;;;;12.03;4.50;;;22.60;99.90;;;;;;5096772;28;20525;-61
2022/10/28 11:35:49;;;;;;;14.17;4.10;;;22.60;99.90;;;;;;5097237;28;20314;-61
2022/10/28 11:38:33;;;;;;;14.87;4.43;;;22.60;99.90;;;;;;5076233;28;20201;-60
2022/10/28 11:41:18;;;;;;;13.93;4.07;;;22.60;99.90;;;;;;5074476;28;20189;-61
2022/10/28 11:43:51;;;;;;;8.60;3.60;;;22.40;99.90;;;;;;5079977;28;20192;-60
2022/10/28 11:46:37;;;;;;;15.73;4.27;;;22.40;99.90;;;;;;5096654;28;20197;-61
2022/10/28 11:49:31;;;;;;;15.33;3.80;;;22.40;99.90;;;;;;5076233;28;20606;-61
2022/10/28 11:52:10;;;;;;;9.40;3.83;;;22.30;99.90;;;;;;5051822;28;20199;-60
2022/10/28 11:54:52;;;;;;;7.13;3.63;;;22.20;99.90;;;;;;5077943;28;20534;-61
2022/10/28 11:57:31;;;;;;;11.60;3.97;;;22.20;99.90;;;;;;5094033;28;20667;-60
2022/10/28 12:00:20;;;;;;;15.77;4.10;;;22.10;99.90;;;;;;5096250;28;20201;-60
2022/10/28 12:03:01;;;;;;;12.13;3.50;;;22.20;99.90;;;;;;5083274;28;20207;-61
2022/10/28 12:05:38;;;;;;;18.00;3.70;;;22.20;99.90;;;;;;5093439;28;20535;-60
2022/10/28 12:08:20;;;;;;;10.10;3.63;;;22.20;99.90;;;;;;5088062;28;20202;-60
2022/10/28 12:11:01;;;;;;;10.87;4.10;;;22.10;99.90;;;;;;5100930;28;20250;-60
2022/10/28 12:13:37;;;;;;;11.37;3.83;;;22.20;99.90;;;;;;5109730;28;20665;-60
2022/10/28 12:16:11;;;;;;;13.93;4.10;;;22.30;99.90;;;;;;5097837;28;20230;-60
2022/10/28 12:18:48;;;;;;;12.47;4.07;;;22.30;99.90;;;;;;5116285;28;20869;-60
2022/10/28 12:21:25;;;;;;;11.37;3.83;;;22.40;99.90;;;;;;5116409;28;20199;-60
2022/10/28 12:23:56;;;;;;;17.27;3.83;;;22.60;99.90;;;;;;5107807;28;20541;-60
2022/10/28 12:26:35;;;;;;;15.73;4.07;;;22.70;99.90;;;;;;5098122;28;20191;-61
2022/10/28 12:29:10;;;;;;;17.20;4.30;;;22.70;99.90;;;;;;5115077;28;20197;-60
2022/10/28 12:31:42;;;;;;;17.00;4.13;;;22.70;99.90;;;;;;5115739;28;20196;-60
2022/10/28 12:34:18;;;;;;;12.70;4.10;;;22.70;99.90;;;;;;5115770;28;20211;-60
2022/10/28 12:36:54;;;;;;;11.43;3.90;;;22.80;99.90;;;;;;5115979;28;20207;-61
2022/10/28 12:39:27;;;;;;;15.13;3.90;;;22.80;99.90;;;;;;5115392;28;20222;-60
2022/10/28 12:42:01;;;;;;;7.87;3.93;;;22.90;99.90;;;;;;5115754;28;20200;-60
2022/10/28 12:44:32;;;;;;;10.63;3.50;;;23.00;99.90;;;;;;5115798;28;20275;-60
2022/10/28 12:47:11;;;;;;;12.20;3.50;;;23.00;99.90;;;;;;5115669;28;20593;-60
2022/10/28 12:49:50;;;;;;;10.63;4.53;;;23.10;99.90;;;;;;5103474;28;20191;-60
2022/10/28 12:52:33;;;;;;;12.40;3.97;;;23.20;99.90;;;;;;5077270;28;20692;-60
2022/10/28 12:55:07;;;;;;;15.70;4.20;;;23.20;99.90;;;;;;5109818;28;20193;-61
2022/10/28 12:57:37;;;;;;;9.80;3.70;;;23.20;99.90;;;;;;5097851;28;20196;-60
2022/10/28 13:00:15;;;;;;;12.27;3.70;;;23.20;99.90;;;;;;5107487;28;20191;-60
2022/10/28 13:02:50;;;;;;;12.60;3.93;;;23.10;99.90;;;;;;5111831;28;20195;-60
2022/10/28 13:05:23;;;;;;;8.63;3.50;;;23.10;99.90;;;;;;5096078;28;20248;-60
2022/10/28 13:08:16;;;;;;;11.67;3.80;;;23.30;99.90;;;;;;5115549;28;20192;-60
2022/10/28 13:10:52;;;;;;;14.87;4.00;;;23.30;99.90;;;;;;5093910;28;20226;-60
2022/10/28 13:13:45;;;;;;;16.43;4.17;;;23.20;99.90;;;;;;5110910;28;20201;-60
2022/10/28 13:16:34;;;;;;;13.70;3.80;;;23.10;99.90;;;;;;5096151;28;20218;-60